createdAt,value
2022-08-25T00:00:23.555Z,4.70
2022-08-25T00:03:08.646Z,4.80
2022-08-25T00:05:38.605Z,5.40
2022-08-25T00:08:08.729Z,4.50
2022-08-25T00:10:39.377Z,4.40
2022-08-25T00:13:12.178Z,5.50
2022-08-25T00:15:44.711Z,5.70
2022-08-25T00:18:19.902Z,5.80
2022-08-25T00:20:50.752Z,5.00
2022-08-25T00:23:20.973Z,4.40
2022-08-25T00:25:51.243Z,4.50
2022-08-25T00:28:20.903Z,4.40
2022-08-25T00:30:50.250Z,4.20
2022-08-25T00:33:19.800Z,4.20
2022-08-25T00:35:48.945Z,4.10
2022-08-25T00:38:17.931Z,4.40
2022-08-25T00:41:06.095Z,3.70
2022-08-25T00:43:42.884Z,4.00
2022-08-25T00:46:14.856Z,3.90
2022-08-25T00:48:51.431Z,4.10
2022-08-25T00:51:33.880Z,3.50
2022-08-25T00:54:04.089Z,3.50
2022-08-25T00:56:35.284Z,3.80
2022-08-25T00:59:05.498Z,4.20
2022-08-25T01:01:34.929Z,4.30
2022-08-25T01:04:04.455Z,3.50
2022-08-25T01:06:39.616Z,3.90
2022-08-25T01:09:09.022Z,4.50
2022-08-25T01:11:38.538Z,4.50
2022-08-25T01:14:07.739Z,4.20
2022-08-25T01:16:39.186Z,4.70
2022-08-25T01:19:09.812Z,4.30
2022-08-25T01:21:51.271Z,4.60
2022-08-25T01:24:45.695Z,4.50
2022-08-25T01:27:14.776Z,4.20
2022-08-25T01:29:43.893Z,4.10
2022-08-25T01:32:15.853Z,4.00
2022-08-25T01:34:46.518Z,4.10
2022-08-25T01:37:17.476Z,4.20
2022-08-25T01:39:47.164Z,4.30
2022-08-25T01:42:25.463Z,4.30
2022-08-25T01:44:54.844Z,4.30
2022-08-25T01:47:24.790Z,4.40
2022-08-25T01:49:53.413Z,4.30
2022-08-25T01:52:32.513Z,4.30
2022-08-25T01:55:02.968Z,5.00
2022-08-25T01:57:34.286Z,4.90
2022-08-25T02:00:06.910Z,4.50
2022-08-25T02:02:57.814Z,4.10
2022-08-25T02:05:28.379Z,4.30
2022-08-25T02:08:02.559Z,5.50
2022-08-25T02:10:34.018Z,4.70
2022-08-25T02:13:03.178Z,4.50
2022-08-25T02:15:44.008Z,4.60
2022-08-25T02:18:13.693Z,4.50
2022-08-25T02:20:42.758Z,4.20
2022-08-25T02:23:11.942Z,4.50
2022-08-25T02:25:42.012Z,3.70
2022-08-25T02:28:11.803Z,4.30
2022-08-25T02:30:42.891Z,4.70
2022-08-25T02:33:12.190Z,3.90
2022-08-25T02:35:45.394Z,4.10
2022-08-25T02:38:15.159Z,4.00
2022-08-25T02:40:45.119Z,4.60
2022-08-25T02:43:13.972Z,3.90
2022-08-25T02:45:42.642Z,3.70
2022-08-25T02:48:12.813Z,4.00
2022-08-25T02:50:47.419Z,3.50
2022-08-25T02:55:45.139Z,4.00
2022-08-25T02:58:16.014Z,4.30
2022-08-25T03:00:46.303Z,5.00
2022-08-25T03:03:16.818Z,4.60
2022-08-25T03:05:47.480Z,5.00
2022-08-25T03:08:17.219Z,5.10
2022-08-25T03:10:46.411Z,6.00
2022-08-25T03:13:18.414Z,4.60
2022-08-25T03:15:47.764Z,4.50
2022-08-25T03:18:18.194Z,4.20
2022-08-25T03:20:47.294Z,4.20
2022-08-25T03:23:16.709Z,4.60
2022-08-25T03:26:04.181Z,4.20
2022-08-25T03:28:33.543Z,4.70
2022-08-25T03:31:02.463Z,4.60
2022-08-25T03:33:32.053Z,5.00
2022-08-25T03:36:00.896Z,4.60
2022-08-25T03:38:30.182Z,4.80
2022-08-25T03:40:59.268Z,4.50
2022-08-25T03:43:28.247Z,4.50
2022-08-25T03:45:59.938Z,5.00
2022-08-25T03:48:28.740Z,4.90
2022-08-25T03:50:59.037Z,4.50
2022-08-25T03:53:29.004Z,4.40
2022-08-25T03:55:59.807Z,4.80
2022-08-25T03:58:28.786Z,4.70
2022-08-25T04:01:00.633Z,4.50
2022-08-25T04:03:29.480Z,5.60
2022-08-25T04:06:03.848Z,10.30
2022-08-25T04:08:32.608Z,4.70
2022-08-25T04:11:17.804Z,3.90
2022-08-25T04:13:52.337Z,4.90
2022-08-25T04:16:24.855Z,4.50
2022-08-25T04:18:57.109Z,3.90
2022-08-25T04:21:27.987Z,4.30
2022-08-25T04:23:57.730Z,4.30
2022-08-25T04:26:34.089Z,4.50
2022-08-25T04:29:04.013Z,4.20
2022-08-25T04:31:34.527Z,4.10
2022-08-25T04:34:04.879Z,3.90
2022-08-25T04:36:57.183Z,4.00
2022-08-25T04:39:26.744Z,4.30
2022-08-25T04:41:56.546Z,4.10
2022-08-25T04:44:25.964Z,4.20
2022-08-25T04:46:56.385Z,4.10
2022-08-25T04:49:26.208Z,3.60
2022-08-25T04:51:57.119Z,4.30
2022-08-25T04:54:26.563Z,4.20
2022-08-25T04:56:59.511Z,4.10
2022-08-25T04:59:30.017Z,4.10
2022-08-25T05:02:08.897Z,3.80
2022-08-25T05:04:40.821Z,4.10
2022-08-25T05:07:10.988Z,4.00
2022-08-25T05:09:42.255Z,4.20
2022-08-25T05:12:14.247Z,4.00
2022-08-25T05:14:46.004Z,4.10
2022-08-25T05:17:18.278Z,4.10
2022-08-25T05:19:48.127Z,4.40
2022-08-25T05:22:17.304Z,3.60
2022-08-25T05:24:48.807Z,3.60
2022-08-25T05:27:17.900Z,3.50
2022-08-25T05:29:48.755Z,4.10
2022-08-25T05:32:19.139Z,3.60
2022-08-25T05:34:52.900Z,3.60
2022-08-25T05:37:29.957Z,3.70
2022-08-25T05:40:06.101Z,3.40
2022-08-25T05:42:36.529Z,3.50
2022-08-25T05:45:15.814Z,3.20
2022-08-25T05:47:55.492Z,3.20
2022-08-25T05:50:34.907Z,3.60
2022-08-25T05:53:07.136Z,2.90
2022-08-25T05:55:37.539Z,3.20
2022-08-25T05:58:10.818Z,3.00
2022-08-25T06:00:46.656Z,2.60
2022-08-25T06:03:19.467Z,2.80
2022-08-25T06:05:51.599Z,3.00
2022-08-25T06:08:22.226Z,3.00
2022-08-25T06:10:54.837Z,2.80
2022-08-25T06:13:30.507Z,3.10
2022-08-25T06:16:05.901Z,3.10
2022-08-25T06:18:38.019Z,3.20
2022-08-25T06:21:14.370Z,2.70
2022-08-25T06:23:44.972Z,2.80
2022-08-25T06:26:21.132Z,2.80
2022-08-25T06:28:56.302Z,2.80
2022-08-25T06:31:35.615Z,2.40
2022-08-25T06:34:21.946Z,3.10
2022-08-25T06:36:57.265Z,2.60
2022-08-25T10:38:57.644Z,3.00
2022-08-25T10:42:07.205Z,3.00
2022-08-25T10:45:08.067Z,3.50
2022-08-25T10:48:09.922Z,3.40
2022-08-25T10:50:55.326Z,3.00
2022-08-25T10:53:56.761Z,3.80
2022-08-25T10:56:53.202Z,3.20
2022-08-25T10:59:29.821Z,3.50
2022-08-25T11:02:30.443Z,3.10
2022-08-25T11:05:09.673Z,3.90
2022-08-25T11:07:47.758Z,3.40
2022-08-25T11:10:29.345Z,3.80
2022-08-25T11:13:04.472Z,4.10
2022-08-25T11:16:00.225Z,4.00
2022-08-25T11:18:34.083Z,4.30
2022-08-25T11:21:18.859Z,4.30
2022-08-25T11:24:13.948Z,3.90
2022-08-25T11:26:52.424Z,4.20
2022-08-25T11:29:26.269Z,3.80
2022-08-25T11:32:04.414Z,3.90
2022-08-25T11:34:43.733Z,4.20
2022-08-25T11:37:29.206Z,3.80
2022-08-25T11:40:19.652Z,4.10
2022-08-25T11:43:15.028Z,4.00
2022-08-25T11:46:10.016Z,4.00
2022-08-25T11:49:07.011Z,3.60
2022-08-25T11:51:52.604Z,3.70
2022-08-25T11:54:36.031Z,4.20
2022-08-25T11:57:15.782Z,3.50
2022-08-25T11:59:56.684Z,4.40
2022-08-25T12:02:42.561Z,3.90
2022-08-25T12:05:21.543Z,4.00
2022-08-25T12:08:17.458Z,3.30
2022-08-25T12:10:59.293Z,3.70
2022-08-25T12:13:46.709Z,4.00
2022-08-25T12:16:41.637Z,4.00
2022-08-25T12:19:38.421Z,3.90
2022-08-25T12:22:13.957Z,3.90
2022-08-25T12:25:11.847Z,3.90
2022-08-25T12:28:09.082Z,4.00
2022-08-25T12:31:02.919Z,4.10
2022-08-25T12:34:06.036Z,4.20
2022-08-25T12:36:39.315Z,4.10
2022-08-25T12:39:25.647Z,4.00
2022-08-25T12:42:03.506Z,3.80
2022-08-25T12:44:49.571Z,4.10
2022-08-25T12:47:34.371Z,3.60
2022-08-25T12:50:44.868Z,3.70
2022-08-25T12:53:43.170Z,3.50
2022-08-25T12:56:57.412Z,3.40
2022-08-25T12:59:40.279Z,3.10
2022-08-25T13:02:38.312Z,3.50
2022-08-25T13:05:42.315Z,3.50
2022-08-25T13:08:56.265Z,3.00
2022-08-25T13:11:35.418Z,3.30
2022-08-25T13:17:05.529Z,3.60
2022-08-25T13:19:36.693Z,3.80
2022-08-25T13:22:16.923Z,3.60
2022-08-25T13:24:52.792Z,3.60
2022-08-25T13:27:32.329Z,4.00
2022-08-25T13:30:05.753Z,3.30
2022-08-25T13:32:39.669Z,3.60
2022-08-25T13:35:34.722Z,3.60
2022-08-25T13:38:16.455Z,3.50
2022-08-25T13:40:50.254Z,3.40
2022-08-25T13:43:27.404Z,4.00
2022-08-25T13:45:58.553Z,3.90
2022-08-25T13:48:49.634Z,3.60
2022-08-25T13:51:31.286Z,3.30
2022-08-25T13:54:06.645Z,3.90
2022-08-25T13:56:41.452Z,3.90
2022-08-25T13:59:40.330Z,3.70
2022-08-25T14:02:15.260Z,3.70
2022-08-25T14:04:54.631Z,3.80
2022-08-25T14:07:23.487Z,3.50
2022-08-25T14:09:54.412Z,3.80
2022-08-25T14:12:44.915Z,3.60
2022-08-25T14:15:21.732Z,3.60
2022-08-25T14:18:14.515Z,4.00
2022-08-25T14:20:48.013Z,3.80
2022-08-25T14:23:31.218Z,3.80
2022-08-25T14:26:06.412Z,3.50
2022-08-25T14:28:39.609Z,3.40
2022-08-25T14:31:18.307Z,3.10
2022-08-25T14:34:02.209Z,3.70
2022-08-25T14:36:34.912Z,3.50
2022-08-25T14:39:08.910Z,3.90
2022-08-25T14:41:41.588Z,3.60
2022-08-25T14:44:11.871Z,3.60
2022-08-25T14:46:56.207Z,4.00
2022-08-25T14:49:34.445Z,3.60
2022-08-25T14:52:22.677Z,3.50
2022-08-25T14:54:53.789Z,3.90
2022-08-25T14:57:29.582Z,3.70
2022-08-25T15:00:04.981Z,3.70
2022-08-25T15:02:40.227Z,3.80
2022-08-25T15:05:23.862Z,3.80
2022-08-25T15:08:15.652Z,4.20
2022-08-25T15:10:48.039Z,4.00
2022-08-25T15:13:18.036Z,3.20
2022-08-25T15:15:53.270Z,3.60
2022-08-25T15:18:27.265Z,3.70
2022-08-25T15:21:03.651Z,3.60
2022-08-25T15:23:37.134Z,3.60
2022-08-25T15:26:19.866Z,4.20
2022-08-25T15:28:54.796Z,3.90
2022-08-25T15:31:27.230Z,3.80
2022-08-25T15:33:58.864Z,3.70
2022-08-25T15:36:30.777Z,4.30
2022-08-25T15:39:00.289Z,3.70
2022-08-25T15:41:30.215Z,3.50
2022-08-25T15:44:01.204Z,5.00
2022-08-25T15:46:34.364Z,4.30
2022-08-25T15:49:10.202Z,4.20
2022-08-25T15:51:42.599Z,3.70
2022-08-25T15:54:19.077Z,3.90
2022-08-25T15:56:48.443Z,3.80
2022-08-25T15:59:22.540Z,3.60
2022-08-25T16:02:01.359Z,4.20
2022-08-25T16:07:03.947Z,3.80
2022-08-25T16:09:37.656Z,11.90
2022-08-25T16:12:12.110Z,5.20
2022-08-25T16:14:47.712Z,4.30
2022-08-25T16:17:21.930Z,4.50
2022-08-25T16:19:53.625Z,4.10
2022-08-25T16:22:24.075Z,4.20
2022-08-25T16:24:56.348Z,4.60
2022-08-25T16:27:38.742Z,4.90
2022-08-25T16:30:14.991Z,4.70
2022-08-25T16:32:48.156Z,4.80
2022-08-25T16:35:18.382Z,4.80
2022-08-25T16:37:52.612Z,5.00
2022-08-25T16:40:31.440Z,8.40
2022-08-25T16:43:07.435Z,5.90
2022-08-25T16:45:43.039Z,4.70
2022-08-25T16:48:20.194Z,4.10
2022-08-25T16:50:54.151Z,3.90
2022-08-25T16:56:25.294Z,4.30
2022-08-25T16:59:04.600Z,7.30
2022-08-25T17:01:42.025Z,4.80
2022-08-25T17:04:13.903Z,9.20
2022-08-25T17:06:51.760Z,4.80
2022-08-25T17:09:25.778Z,4.40
2022-08-25T17:11:57.485Z,4.60
2022-08-25T17:14:27.920Z,5.70
2022-08-25T17:17:00.257Z,5.50
2022-08-25T17:19:38.202Z,6.00
2022-08-25T17:22:14.650Z,10.50
2022-08-25T17:24:44.389Z,12.70
2022-08-25T17:27:24.403Z,12.00
2022-08-25T17:29:56.082Z,10.50
2022-08-25T17:32:34.288Z,7.80
2022-08-25T17:35:13.582Z,9.30
2022-08-25T17:37:45.299Z,10.40
2022-08-25T17:40:22.311Z,8.50
2022-08-25T17:42:56.332Z,10.50
2022-08-25T17:45:26.710Z,10.20
2022-08-25T17:47:56.181Z,8.20
2022-08-25T17:50:29.763Z,10.80
2022-08-25T17:53:02.244Z,26.20
2022-08-25T17:55:38.092Z,16.80
2022-08-25T17:58:08.624Z,11.70
2022-08-25T18:00:43.906Z,10.60
2022-08-25T18:03:16.486Z,12.80
2022-08-25T18:05:50.709Z,13.50
2022-08-25T18:08:34.855Z,7.00
2022-08-25T18:11:08.565Z,8.50
2022-08-25T18:13:41.200Z,9.90
2022-08-25T18:16:13.837Z,8.10
2022-08-25T18:18:43.128Z,8.60
2022-08-25T18:21:20.911Z,7.60
2022-08-25T18:23:57.160Z,7.90
2022-08-25T18:26:28.002Z,6.20
2022-08-25T18:28:57.716Z,6.20
2022-08-25T18:31:29.490Z,8.00
2022-08-25T18:34:00.319Z,7.60
2022-08-25T18:36:30.853Z,8.90
2022-08-25T18:39:22.365Z,9.20
2022-08-25T18:41:54.466Z,8.40
2022-08-25T18:44:30.425Z,64.10
2022-08-25T18:47:07.333Z,29.10
2022-08-25T18:49:39.898Z,12.40
2022-08-25T18:52:10.667Z,20.40
2022-08-25T18:54:41.868Z,42.00
2022-08-25T18:57:14.604Z,17.20
2022-08-25T18:59:49.795Z,6.00
2022-08-25T19:02:23.487Z,15.80
2022-08-25T19:04:54.785Z,13.50
2022-08-25T19:07:26.914Z,8.00
2022-08-25T19:09:56.689Z,8.60
2022-08-25T19:12:27.840Z,8.90
2022-08-25T19:14:59.407Z,7.50
2022-08-25T19:17:37.452Z,9.90
2022-08-25T19:20:11.242Z,9.20
2022-08-25T19:22:42.305Z,11.70
2022-08-25T19:25:15.116Z,5.40
2022-08-25T19:27:51.502Z,4.90
2022-08-25T19:32:54.123Z,9.60
2022-08-25T19:35:32.227Z,14.10
2022-08-25T19:38:33.203Z,9.50
2022-08-25T19:43:33.891Z,7.50
2022-08-25T19:46:08.318Z,6.00
2022-08-25T19:48:38.432Z,5.50
2022-08-25T19:51:11.929Z,5.00
2022-08-25T19:53:40.405Z,4.60
2022-08-25T19:56:10.914Z,5.30
2022-08-25T19:58:42.262Z,5.40
2022-08-25T20:01:18.104Z,5.20
2022-08-25T20:03:50.761Z,4.70
2022-08-25T20:06:27.716Z,5.10
2022-08-25T20:09:04.441Z,5.00
2022-08-25T20:11:34.395Z,5.00
2022-08-25T20:14:04.666Z,5.20
2022-08-25T20:16:34.248Z,4.80
2022-08-25T20:19:09.296Z,4.50
2022-08-25T20:21:41.380Z,5.10
2022-08-25T20:24:30.421Z,4.60
2022-08-25T20:27:01.286Z,5.00
2022-08-25T20:29:31.461Z,5.00
2022-08-25T20:32:03.491Z,4.90
2022-08-25T20:34:36.591Z,4.60
2022-08-25T20:37:06.951Z,4.60
2022-08-25T20:39:39.471Z,5.00
2022-08-25T20:42:10.431Z,4.90
2022-08-25T20:44:42.129Z,5.60
2022-08-25T20:47:19.405Z,5.20
2022-08-25T20:49:49.201Z,6.60
2022-08-25T20:52:22.306Z,4.90
2022-08-25T20:54:52.562Z,6.20
2022-08-25T20:57:26.512Z,5.30
2022-08-25T20:59:58.382Z,5.50
2022-08-25T21:02:30.193Z,5.20
2022-08-25T21:05:01.398Z,4.90
2022-08-25T21:07:35.728Z,5.00
2022-08-25T21:10:10.685Z,5.30
2022-08-25T21:12:45.374Z,5.90
2022-08-25T21:15:18.154Z,5.70
2022-08-25T21:17:56.538Z,6.50
2022-08-25T21:20:26.526Z,8.70
2022-08-25T21:22:58.267Z,9.90
2022-08-25T21:25:28.201Z,6.60
2022-08-25T21:27:58.492Z,7.20
2022-08-25T21:30:28.503Z,9.90
2022-08-25T21:32:57.721Z,10.10
2022-08-25T21:35:30.387Z,10.30
2022-08-25T21:38:01.488Z,12.40
2022-08-25T21:40:36.945Z,11.10
2022-08-25T21:43:07.530Z,10.20
2022-08-25T21:45:46.414Z,9.30
2022-08-25T21:48:17.494Z,8.50
2022-08-25T21:50:52.493Z,10.30
2022-08-25T21:55:50.736Z,7.90
2022-08-25T21:58:21.107Z,7.10
2022-08-25T22:00:50.815Z,9.10
2022-08-25T22:03:22.410Z,5.40
2022-08-25T22:05:52.381Z,7.90
2022-08-25T22:08:20.776Z,12.90
2022-08-25T22:10:50.507Z,11.10
2022-08-25T22:13:20.473Z,9.90
2022-08-25T22:15:52.191Z,6.70
2022-08-25T22:18:23.104Z,6.50
2022-08-25T22:20:52.731Z,6.80
2022-08-25T22:23:23.309Z,6.90
2022-08-25T22:25:58.615Z,7.50
2022-08-25T22:28:29.253Z,5.20
2022-08-25T22:31:02.957Z,4.80
2022-08-25T22:33:32.602Z,5.30
2022-08-25T22:36:01.724Z,5.00
2022-08-25T22:38:32.636Z,5.20
2022-08-25T22:41:03.016Z,5.10
2022-08-25T22:43:32.456Z,5.90
2022-08-25T22:46:04.073Z,7.40
2022-08-25T22:48:35.290Z,6.70
2022-08-25T22:51:12.941Z,11.50
2022-08-25T22:53:45.677Z,9.50
2022-08-25T22:56:17.710Z,16.60
2022-08-25T22:58:51.448Z,13.70
2022-08-25T23:01:25.064Z,13.50
2022-08-25T23:04:08.636Z,8.70
2022-08-25T23:06:43.383Z,8.90
2022-08-25T23:09:12.583Z,5.10
2022-08-25T23:11:43.776Z,6.30
2022-08-25T23:14:16.952Z,7.10
2022-08-25T23:16:45.928Z,10.90
2022-08-25T23:19:17.386Z,11.60
2022-08-25T23:22:05.205Z,23.40
2022-08-25T23:24:34.597Z,29.90
2022-08-25T23:27:05.324Z,22.80
2022-08-25T23:29:40.868Z,18.00
2022-08-25T23:32:14.341Z,15.60
2022-08-25T23:34:46.510Z,17.60
2022-08-25T23:37:18.420Z,26.80
2022-08-25T23:39:49.830Z,28.80
2022-08-25T23:42:21.017Z,29.80
2022-08-25T23:44:51.701Z,30.00
2022-08-25T23:47:21.679Z,27.20
2022-08-25T23:49:52.083Z,27.90
2022-08-25T23:52:21.269Z,19.40
2022-08-25T23:54:50.638Z,19.90
2022-08-25T23:57:19.921Z,22.20
2022-08-25T23:59:49.456Z,21.40
